LOT7752 EFRO-EPSY
Flight info
| Callsign | LOT7752 |
|---|---|
| Flight time | N/A |
| Altitude | 35000 |
| Route | RENVI Y86 LUSEP/N0464F360 DCT SULUN/N0462F370 DCT LUTAL/N0461F360 P870 RUVAT L738 ASKOR/N0460F370 DCT ORZIK/N0461F360 |
| Aircraft | B738/M-SDE2E3FGHIRWXY/LB1 |
Departure
| Time | N/A |
|---|---|
| Airport | Rovaniemi Airport (EFRO) |
Arrival
| Time | 2026-05-06 17:11 |
|---|---|
| Airport | Olsztyn-Mazury Airport (EPSY) |
| Time | Latitude | Longitude | Altitude | Speed | Heading |
|---|---|---|---|---|---|
| 2026-05-06 16:37 | 56.33712 | 22.71298 | 35119 ft | 352 kts | 149° |
| 2026-05-06 16:38 | 56.29383 | 22.75448 | 34936 ft | 356 kts | 165° |
| 2026-05-06 16:38 | 56.26998 | 22.75959 | 34823 ft | 348 kts | 190° |
| 2026-05-06 16:38 | 56.24736 | 22.74734 | 34583 ft | 343 kts | 210° |
| 2026-05-06 16:38 | 56.22567 | 22.72742 | 34346 ft | 361 kts | 209° |
| 2026-05-06 16:39 | 56.20178 | 22.71123 | 34094 ft | 384 kts | 196° |
| 2026-05-06 16:39 | 56.17450 | 22.70615 | 33847 ft | 407 kts | 182° |
| 2026-05-06 16:39 | 56.14597 | 22.70918 | 33600 ft | 426 kts | 176° |
| 2026-05-06 16:39 | 56.11587 | 22.71567 | 33347 ft | 445 kts | 174° |
| 2026-05-06 16:40 | 56.08520 | 22.72376 | 32870 ft | 457 kts | 173° |
| 2026-05-06 16:40 | 56.05381 | 22.73293 | 32324 ft | 458 kts | 173° |
| 2026-05-06 16:40 | 56.02229 | 22.74259 | 31792 ft | 472 kts | 172° |
| 2026-05-06 16:40 | 55.98994 | 22.75282 | 31514 ft | 471 kts | 172° |
| 2026-05-06 16:41 | 55.95776 | 22.76318 | 31534 ft | 474 kts | 172° |
| 2026-05-06 16:41 | 55.92574 | 22.77371 | 31794 ft | 475 kts | 172° |
| 2026-05-06 16:41 | 55.89345 | 22.78447 | 32089 ft | 478 kts | 172° |
| 2026-05-06 16:41 | 55.86059 | 22.79550 | 32389 ft | 481 kts | 171° |
| 2026-05-06 16:42 | 55.82825 | 22.80641 | 32684 ft | 481 kts | 171° |
| 2026-05-06 16:42 | 55.79517 | 22.81760 | 32986 ft | 481 kts | 171° |
| 2026-05-06 16:42 | 55.76281 | 22.82857 | 33279 ft | 482 kts | 171° |
| 2026-05-06 16:42 | 55.72980 | 22.83977 | 33580 ft | 481 kts | 171° |
| 2026-05-06 16:43 | 55.69735 | 22.85078 | 33877 ft | 481 kts | 171° |
| 2026-05-06 16:43 | 55.66459 | 22.86190 | 34176 ft | 481 kts | 171° |
| 2026-05-06 16:43 | 55.63170 | 22.87304 | 34478 ft | 480 kts | 171° |
| 2026-05-06 16:43 | 55.59917 | 22.88394 | 34701 ft | 481 kts | 171° |
| 2026-05-06 16:44 | 55.56651 | 22.89478 | 34624 ft | 478 kts | 171° |
| 2026-05-06 16:44 | 55.50219 | 22.91668 | 34728 ft | 471 kts | 171° |
| 2026-05-06 16:44 | 55.47042 | 22.92743 | 34833 ft | 472 kts | 171° |
| 2026-05-06 16:45 | 55.43804 | 22.93833 | 34917 ft | 475 kts | 171° |
| 2026-05-06 16:45 | 55.37392 | 22.95988 | 34911 ft | 474 kts | 171° |
| 2026-05-06 16:46 | 55.30945 | 22.98148 | 34912 ft | 472 kts | 171° |
| 2026-05-06 16:46 | 55.24548 | 23.00281 | 34912 ft | 472 kts | 171° |
| 2026-05-06 16:47 | 55.18122 | 23.02418 | 34912 ft | 472 kts | 171° |
| 2026-05-06 16:47 | 55.11699 | 23.04537 | 34911 ft | 471 kts | 172° |
| 2026-05-06 16:48 | 55.05226 | 23.04920 | 34906 ft | 467 kts | 189° |
| 2026-05-06 16:48 | 55.02072 | 23.03607 | 34904 ft | 464 kts | 201° |
| 2026-05-06 16:48 | 54.99129 | 23.01479 | 34881 ft | 464 kts | 208° |
| 2026-05-06 16:49 | 54.93860 | 22.95188 | 34859 ft | 462 kts | 223° |
| 2026-05-06 16:49 | 54.88998 | 22.87905 | 34867 ft | 464 kts | 223° |
| 2026-05-06 16:50 | 54.84064 | 22.80751 | 34876 ft | 464 kts | 223° |
| 2026-05-06 16:50 | 54.79136 | 22.73606 | 34858 ft | 463 kts | 223° |
| 2026-05-06 16:51 | 54.74207 | 22.66489 | 34859 ft | 463 kts | 223° |
| 2026-05-06 16:51 | 54.69274 | 22.59392 | 34887 ft | 463 kts | 223° |
| 2026-05-06 16:52 | 54.64336 | 22.52311 | 34912 ft | 463 kts | 223° |
| 2026-05-06 16:52 | 54.59391 | 22.45245 | 34912 ft | 463 kts | 223° |
| 2026-05-06 16:53 | 54.54445 | 22.38199 | 34905 ft | 463 kts | 223° |
| 2026-05-06 16:53 | 54.49526 | 22.31214 | 34863 ft | 464 kts | 222° |
| 2026-05-06 16:54 | 54.44557 | 22.24185 | 34814 ft | 464 kts | 222° |
| 2026-05-06 16:54 | 54.39587 | 22.17177 | 34778 ft | 464 kts | 222° |
| 2026-05-06 16:55 | 54.34621 | 22.10201 | 34553 ft | 455 kts | 222° |
| 2026-05-06 16:55 | 54.32207 | 22.06825 | 33461 ft | 448 kts | 222° |
| 2026-05-06 16:55 | 54.29811 | 22.03470 | 31547 ft | 459 kts | 222° |
| 2026-05-06 16:55 | 54.27366 | 22.00044 | 29659 ft | 463 kts | 222° |
| 2026-05-06 16:56 | 54.24911 | 21.96615 | 27686 ft | 465 kts | 221° |
| 2026-05-06 16:56 | 54.22468 | 21.93210 | 25511 ft | 468 kts | 221° |
| 2026-05-06 16:56 | 54.19988 | 21.89761 | 23684 ft | 457 kts | 221° |
| 2026-05-06 16:56 | 54.17580 | 21.86422 | 22146 ft | 442 kts | 220° |
| 2026-05-06 16:57 | 54.15269 | 21.83224 | 20564 ft | 430 kts | 220° |
| 2026-05-06 16:57 | 54.12986 | 21.80072 | 18942 ft | 419 kts | 220° |
| 2026-05-06 16:57 | 54.10801 | 21.77070 | 17350 ft | 409 kts | 219° |
| 2026-05-06 16:57 | 54.08625 | 21.74111 | 15732 ft | 400 kts | 219° |
| 2026-05-06 16:58 | 54.06529 | 21.71263 | 14143 ft | 391 kts | 218° |
| 2026-05-06 16:58 | 54.04466 | 21.68449 | 12548 ft | 383 kts | 218° |
| 2026-05-06 16:58 | 54.02439 | 21.65683 | 11036 ft | 373 kts | 218° |
| 2026-05-06 16:58 | 54.00490 | 21.63027 | 10473 ft | 344 kts | 218° |
| 2026-05-06 16:59 | 53.98611 | 21.60481 | 10240 ft | 347 kts | 218° |
| 2026-05-06 16:59 | 53.96777 | 21.57991 | 9980 ft | 334 kts | 218° |
| 2026-05-06 16:59 | 53.95005 | 21.55584 | 9726 ft | 321 kts | 218° |
| 2026-05-06 16:59 | 53.93296 | 21.53269 | 9474 ft | 310 kts | 219° |
| 2026-05-06 17:00 | 53.91643 | 21.51034 | 9223 ft | 300 kts | 218° |
| 2026-05-06 17:00 | 53.90055 | 21.48884 | 8974 ft | 290 kts | 218° |
| 2026-05-06 17:00 | 53.88500 | 21.46785 | 8724 ft | 282 kts | 218° |
| 2026-05-06 17:00 | 53.87158 | 21.44425 | 8464 ft | 276 kts | 238° |
| 2026-05-06 17:01 | 53.86691 | 21.41337 | 8217 ft | 274 kts | 270° |
| 2026-05-06 17:01 | 53.86940 | 21.38188 | 7978 ft | 269 kts | 277° |
| 2026-05-06 17:01 | 53.87213 | 21.35090 | 7727 ft | 265 kts | 276° |
| 2026-05-06 17:01 | 53.87471 | 21.32014 | 7480 ft | 265 kts | 275° |
| 2026-05-06 17:02 | 53.87611 | 21.28950 | 7187 ft | 260 kts | 262° |
| 2026-05-06 17:02 | 53.86985 | 21.26170 | 6813 ft | 253 kts | 230° |
| 2026-05-06 17:02 | 53.85737 | 21.24293 | 6457 ft | 252 kts | 215° |
| 2026-05-06 17:02 | 53.84289 | 21.22601 | 6080 ft | 252 kts | 214° |
| 2026-05-06 17:03 | 53.82859 | 21.20951 | 5720 ft | 251 kts | 214° |
| 2026-05-06 17:03 | 53.81406 | 21.19296 | 5364 ft | 251 kts | 214° |
| 2026-05-06 17:03 | 53.79959 | 21.17667 | 4998 ft | 250 kts | 214° |
| 2026-05-06 17:03 | 53.78518 | 21.16039 | 4637 ft | 249 kts | 213° |
| 2026-05-06 17:04 | 53.77116 | 21.14465 | 4503 ft | 239 kts | 213° |
| 2026-05-06 17:04 | 53.75765 | 21.12961 | 4412 ft | 228 kts | 214° |
| 2026-05-06 17:04 | 53.74467 | 21.11511 | 4331 ft | 217 kts | 215° |
| 2026-05-06 17:04 | 53.73253 | 21.10147 | 4257 ft | 206 kts | 214° |
| 2026-05-06 17:05 | 53.72088 | 21.08839 | 4187 ft | 193 kts | 213° |
| 2026-05-06 17:05 | 53.71001 | 21.07629 | 4113 ft | 181 kts | 214° |
| 2026-05-06 17:05 | 53.70002 | 21.06511 | 4065 ft | 167 kts | 213° |
| 2026-05-06 17:05 | 53.69032 | 21.05430 | 4047 ft | 166 kts | 214° |
| 2026-05-06 17:06 | 53.68053 | 21.04372 | 4066 ft | 167 kts | 207° |
| 2026-05-06 17:06 | 53.66962 | 21.03786 | 4224 ft | 169 kts | 197° |
| 2026-05-06 17:06 | 53.65823 | 21.03226 | 4167 ft | 170 kts | 198° |
| 2026-05-06 17:06 | 53.64669 | 21.02693 | 4086 ft | 173 kts | 195° |
| 2026-05-06 17:07 | 53.63506 | 21.02211 | 3798 ft | 170 kts | 196° |
| 2026-05-06 17:07 | 53.62383 | 21.01776 | 3582 ft | 165 kts | 196° |
| 2026-05-06 17:07 | 53.61288 | 21.01290 | 3337 ft | 159 kts | 198° |
| 2026-05-06 17:07 | 53.60272 | 21.00819 | 3239 ft | 144 kts | 196° |
| 2026-05-06 17:08 | 53.59347 | 21.00319 | 3015 ft | 135 kts | 200° |
| 2026-05-06 17:08 | 53.58505 | 20.99819 | 2788 ft | 123 kts | 202° |
| 2026-05-06 17:08 | 53.57702 | 20.99329 | 2467 ft | 123 kts | 202° |
| 2026-05-06 17:08 | 53.56909 | 20.98873 | 2281 ft | 121 kts | 203° |
| 2026-05-06 17:09 | 53.56114 | 20.98381 | 2185 ft | 120 kts | 204° |
| 2026-05-06 17:09 | 53.55354 | 20.97850 | 2088 ft | 118 kts | 201° |
| 2026-05-06 17:09 | 53.54559 | 20.97358 | 1934 ft | 126 kts | 204° |
| 2026-05-06 17:09 | 53.53756 | 20.96873 | 1751 ft | 118 kts | 202° |
| 2026-05-06 17:10 | 53.52953 | 20.96432 | 1553 ft | 122 kts | 200° |
| 2026-05-06 17:10 | 53.52142 | 20.96008 | 1248 ft | 118 kts | 201° |
| 2026-05-06 17:10 | 53.51376 | 20.95562 | 1037 ft | 119 kts | 204° |
| 2026-05-06 17:10 | 53.50569 | 20.95102 | 845 ft | 124 kts | 202° |
| 2026-05-06 17:11 | 53.49760 | 20.94653 | 656 ft | 121 kts | 202° |
| 2026-05-06 17:11 | 53.48948 | 20.94199 | 487 ft | 120 kts | 201° |
| 2026-05-06 17:11 | 53.48347 | 20.93859 | 470 ft | 37 kts | 198° |
| 2026-05-06 17:11 | 53.48318 | 20.93844 | 470 ft | 0 kts | 199° |